Time;durP1;ratioP1;P1;durP2;ratioP2;P2;SDS_P1;SDS_P2;PMS_P1;PMS_P2;Temp;Humidity;BMP_temperature;BMP_pressure;BME280_temperature;BME280_humidity;BME280_pressure;Samples;Min_cycle;Max_cycle;Signal;HPM_P1;HPM_P2
2023/06/02 00:01:13;;;;;;;15.30;8.23;;;12.70;99.90;;;;;;5092833;28;20443;-71
2023/06/02 00:03:40;;;;;;;11.10;9.00;;;12.70;99.90;;;;;;5092950;28;20458;-70
2023/06/02 00:06:09;;;;;;;11.03;8.67;;;12.70;99.90;;;;;;5092971;28;20451;-70
2023/06/02 00:08:38;;;;;;;17.93;8.90;;;12.60;99.90;;;;;;5092327;28;20466;-70
2023/06/02 00:11:05;;;;;;;14.47;9.20;;;12.60;99.90;;;;;;5092617;28;20483;-70
2023/06/02 00:13:32;;;;;;;10.40;8.03;;;12.60;99.90;;;;;;5093001;28;20442;-71
2023/06/02 00:16:00;;;;;;;15.37;9.20;;;12.60;99.90;;;;;;5092847;28;20447;-70
2023/06/02 00:18:27;;;;;;;16.30;7.90;;;12.60;99.90;;;;;;5092725;28;20456;-71
2023/06/02 00:20:53;;;;;;;11.93;8.20;;;12.50;99.90;;;;;;5092347;28;20438;-70
2023/06/02 00:23:21;;;;;;;11.73;8.00;;;12.50;99.90;;;;;;5091713;28;20474;-71
2023/06/02 00:25:48;;;;;;;14.60;8.90;;;12.50;99.90;;;;;;5092390;28;20806;-71
2023/06/02 00:28:15;;;;;;;15.60;8.03;;;12.50;99.90;;;;;;5092598;28;20452;-71
2023/06/02 00:30:41;;;;;;;11.10;8.43;;;12.50;99.90;;;;;;5091406;28;20455;-71
2023/06/02 00:33:09;;;;;;;11.43;8.10;;;12.50;99.90;;;;;;5091850;28;20486;-71
2023/06/02 00:35:36;;;;;;;11.20;8.40;;;12.40;99.90;;;;;;5092063;28;20454;-70
2023/06/02 00:38:03;;;;;;;11.40;8.17;;;12.40;99.90;;;;;;5091806;28;20451;-70
2023/06/02 00:40:30;;;;;;;12.20;8.40;;;12.40;99.90;;;;;;5092160;28;20455;-71
2023/06/02 00:42:57;;;;;;;10.87;7.57;;;12.40;99.90;;;;;;5091695;28;20513;-71
2023/06/02 00:45:24;;;;;;;10.23;7.80;;;12.50;99.90;;;;;;5092145;28;20458;-71
2023/06/02 00:47:51;;;;;;;10.87;8.80;;;12.50;99.90;;;;;;5091627;28;20551;-72
2023/06/02 00:50:19;;;;;;;11.27;8.50;;;12.40;99.90;;;;;;5091858;28;20806;-72
2023/06/02 00:52:47;;;;;;;9.10;8.10;;;12.50;99.90;;;;;;5091785;28;20493;-72
2023/06/02 00:55:14;;;;;;;11.73;8.33;;;12.50;99.90;;;;;;5091640;28;20996;-72
2023/06/02 00:57:41;;;;;;;11.30;8.40;;;12.40;99.90;;;;;;5091761;28;20450;-72
2023/06/02 01:00:09;;;;;;;12.43;8.43;;;12.40;99.90;;;;;;5091356;28;20451;-72
2023/06/02 01:02:36;;;;;;;10.57;8.30;;;12.30;99.90;;;;;;5091753;28;20852;-72
2023/06/02 01:05:06;;;;;;;11.23;8.50;;;12.30;99.90;;;;;;5091952;28;20492;-72
2023/06/02 01:07:36;;;;;;;12.67;8.90;;;12.30;99.90;;;;;;5091651;28;20455;-71
2023/06/02 01:10:03;;;;;;;15.23;7.70;;;12.20;99.90;;;;;;5091669;28;20480;-71
2023/06/02 01:12:30;;;;;;;13.77;9.30;;;12.20;99.90;;;;;;5091913;28;21154;-72
2023/06/02 01:14:57;;;;;;;12.90;8.47;;;12.20;99.90;;;;;;5090986;28;20977;-72
2023/06/02 01:17:30;;;;;;;20.73;9.70;;;12.10;99.90;;;;;;5091759;28;20447;-71
2023/06/02 01:20:05;;;;;;;17.37;9.33;;;12.10;99.90;;;;;;5091674;28;20447;-72
2023/06/02 01:22:38;;;;;;;14.40;8.80;;;12.00;99.90;;;;;;5091042;28;20474;-72
2023/06/02 01:25:17;;;;;;;14.60;9.30;;;11.90;99.90;;;;;;5091491;28;20914;-71
2023/06/02 01:27:44;;;;;;;12.30;8.47;;;11.90;99.90;;;;;;5091442;28;20443;-71
2023/06/02 01:30:12;;;;;;;16.53;9.60;;;11.90;99.90;;;;;;5091411;28;20864;-71
2023/06/02 01:32:44;;;;;;;15.80;9.23;;;11.90;99.90;;;;;;5091112;28;20487;-71
2023/06/02 01:35:12;;;;;;;9.53;8.23;;;11.90;99.90;;;;;;5091342;28;20564;-73
2023/06/02 01:37:54;;;;;;;14.27;9.20;;;11.90;99.90;;;;;;5087498;28;20483;-71
2023/06/02 01:40:23;;;;;;;17.33;9.13;;;11.90;99.90;;;;;;5091374;28;20443;-71
2023/06/02 01:42:51;;;;;;;13.33;8.93;;;11.90;99.90;;;;;;5090421;28;20467;-71
2023/06/02 01:45:19;;;;;;;11.33;8.73;;;11.90;99.90;;;;;;5091379;28;20446;-72
2023/06/02 01:47:46;;;;;;;15.63;9.23;;;11.80;99.90;;;;;;5090913;28;20964;-72
2023/06/02 01:50:12;;;;;;;19.50;9.10;;;11.80;99.90;;;;;;5091199;28;20496;-72
2023/06/02 01:52:39;;;;;;;12.07;8.60;;;11.80;99.90;;;;;;5091084;28;20487;-72
2023/06/02 01:55:06;;;;;;;15.07;8.87;;;11.80;99.90;;;;;;5091303;28;20497;-71
2023/06/02 01:57:34;;;;;;;12.27;9.30;;;11.70;99.90;;;;;;5091109;28;20455;-72
2023/06/02 02:00:01;;;;;;;12.17;8.80;;;11.70;99.90;;;;;;5089730;28;20512;-71
2023/06/02 02:02:28;;;;;;;18.63;9.63;;;11.70;99.90;;;;;;5091284;28;20898;-71
2023/06/02 02:04:54;;;;;;;17.23;9.30;;;11.70;99.90;;;;;;5090998;28;20451;-72
2023/06/02 02:07:21;;;;;;;16.13;9.37;;;11.70;99.90;;;;;;5090989;28;20815;-71
2023/06/02 02:09:47;;;;;;;15.03;8.40;;;11.70;99.90;;;;;;5090340;28;20458;-72
2023/06/02 02:12:14;;;;;;;11.40;8.43;;;11.60;99.90;;;;;;5090781;28;20483;-71
2023/06/02 02:14:42;;;;;;;11.20;9.03;;;11.60;99.90;;;;;;5090465;28;20447;-71
2023/06/02 02:17:10;;;;;;;13.43;8.53;;;11.60;99.90;;;;;;5091103;28;21022;-72
2023/06/02 02:19:37;;;;;;;19.47;8.93;;;11.60;99.90;;;;;;5090687;28;20824;-71
2023/06/02 02:22:03;;;;;;;17.80;9.77;;;11.60;99.90;;;;;;5082680;28;20466;-71
2023/06/02 02:24:30;;;;;;;12.77;8.60;;;11.70;99.90;;;;;;5090840;28;20870;-71
2023/06/02 02:26:57;;;;;;;14.90;9.37;;;11.70;99.90;;;;;;5090833;28;20446;-72
2023/06/02 02:29:23;;;;;;;18.80;9.17;;;11.70;99.90;;;;;;5090338;28;20953;-72
2023/06/02 02:31:51;;;;;;;14.03;8.67;;;11.80;99.90;;;;;;5090374;28;20520;-71
2023/06/02 02:34:19;;;;;;;15.87;8.63;;;11.80;99.90;;;;;;5090583;28;20466;-72
2023/06/02 02:36:46;;;;;;;15.63;9.20;;;11.80;99.90;;;;;;5090843;28;20455;-72
2023/06/02 02:39:13;;;;;;;15.23;9.40;;;11.70;99.90;;;;;;5090727;28;20480;-72
2023/06/02 02:41:39;;;;;;;14.50;9.53;;;11.70;99.90;;;;;;5090527;28;20528;-71
2023/06/02 02:44:06;;;;;;;14.90;9.17;;;11.70;99.90;;;;;;5090257;28;20457;-72
2023/06/02 02:46:32;;;;;;;15.67;9.10;;;11.60;99.90;;;;;;5090413;28;20473;-71
2023/06/02 02:49:00;;;;;;;16.77;8.47;;;11.60;99.90;;;;;;5090353;28;20463;-71
2023/06/02 02:51:27;;;;;;;15.40;8.50;;;11.60;99.90;;;;;;5090518;28;20474;-72
2023/06/02 02:53:53;;;;;;;13.83;8.67;;;11.60;99.90;;;;;;5091434;28;20486;-72
2023/06/02 02:56:22;;;;;;;19.80;9.23;;;11.60;99.90;;;;;;5094193;28;20450;-71
2023/06/02 02:58:48;;;;;;;15.43;8.87;;;11.70;99.90;;;;;;5093999;28;20454;-71
2023/06/02 03:01:16;;;;;;;17.73;9.00;;;11.60;99.90;;;;;;5093627;28;21027;-72
2023/06/02 03:03:42;;;;;;;10.37;8.20;;;11.60;99.90;;;;;;5088106;28;20958;-71
2023/06/02 03:06:13;;;;;;;19.30;9.43;;;11.60;99.90;;;;;;5094132;28;20446;-71
2023/06/02 03:08:40;;;;;;;12.73;8.13;;;11.60;99.90;;;;;;5094176;28;20495;-71
2023/06/02 03:11:07;;;;;;;13.90;8.60;;;11.50;99.90;;;;;;5087032;28;20519;-72
2023/06/02 03:13:33;;;;;;;12.50;8.30;;;11.40;99.90;;;;;;5094186;28;20482;-72
2023/06/02 03:16:00;;;;;;;13.73;8.40;;;11.40;99.90;;;;;;5093610;28;20450;-71
2023/06/02 03:18:27;;;;;;;18.23;8.80;;;11.40;99.90;;;;;;5094015;28;20450;-71
2023/06/02 03:20:55;;;;;;;21.13;8.90;;;11.40;99.90;;;;;;5093560;28;20455;-71
2023/06/02 03:23:23;;;;;;;18.00;8.33;;;11.40;99.90;;;;;;5093859;28;20468;-71
2023/06/02 03:25:51;;;;;;;12.23;7.93;;;11.40;99.90;;;;;;5093416;28;20450;-71
2023/06/02 03:28:18;;;;;;;13.00;8.03;;;11.40;99.90;;;;;;5093905;28;20455;-71
2023/06/02 03:30:45;;;;;;;14.43;8.53;;;11.30;99.90;;;;;;5092981;28;20470;-71
2023/06/02 03:33:11;;;;;;;15.57;9.20;;;11.30;99.90;;;;;;5093497;28;20982;-72
2023/06/02 03:35:38;;;;;;;13.13;8.10;;;11.30;99.90;;;;;;5093471;28;20939;-71
2023/06/02 03:38:06;;;;;;;12.83;8.23;;;11.30;99.90;;;;;;5093534;28;20869;-72
2023/06/02 03:40:35;;;;;;;15.30;9.33;;;11.30;99.90;;;;;;5093073;28;20520;-71
2023/06/02 03:43:01;;;;;;;23.57;8.60;;;11.20;99.90;;;;;;5093077;28;20479;-71
2023/06/02 03:45:28;;;;;;;16.73;9.37;;;11.20;99.90;;;;;;5093324;28;20512;-71
2023/06/02 03:47:54;;;;;;;14.53;8.30;;;11.20;99.90;;;;;;5093092;28;20462;-71
2023/06/02 03:50:21;;;;;;;18.23;8.73;;;11.20;99.90;;;;;;5093184;28;20455;-71
2023/06/02 03:52:48;;;;;;;15.13;9.00;;;11.30;99.90;;;;;;5092163;28;20498;-71
2023/06/02 03:55:16;;;;;;;12.20;8.37;;;11.20;99.90;;;;;;5093454;28;20463;-71
2023/06/02 03:57:45;;;;;;;19.87;8.60;;;11.20;99.90;;;;;;5093198;28;20493;-71
2023/06/02 04:00:13;;;;;;;14.67;9.23;;;11.30;99.90;;;;;;5085074;28;20490;-71
2023/06/02 04:02:39;;;;;;;21.67;8.60;;;11.30;99.90;;;;;;5092952;28;20516;-71
2023/06/02 04:05:06;;;;;;;13.60;8.40;;;11.20;99.90;;;;;;5091668;28;20443;-71
2023/06/02 04:07:33;;;;;;;12.53;8.40;;;11.30;99.90;;;;;;5093122;28;20519;-71
2023/06/02 04:09:59;;;;;;;12.13;8.10;;;11.20;99.90;;;;;;5092406;28;20887;-71
2023/06/02 04:12:26;;;;;;;17.33;7.83;;;11.20;99.90;;;;;;5092409;28;21126;-71
2023/06/02 04:14:54;;;;;;;15.63;7.93;;;11.20;99.90;;;;;;5092572;28;20485;-71
2023/06/02 04:17:21;;;;;;;20.83;8.07;;;11.10;99.90;;;;;;5092240;28;20950;-71
2023/06/02 04:19:48;;;;;;;13.80;9.40;;;11.10;99.90;;;;;;5092639;28;20512;-71
2023/06/02 04:22:14;;;;;;;14.67;8.80;;;11.10;99.90;;;;;;5092363;28;20542;-71
2023/06/02 04:24:41;;;;;;;12.23;8.10;;;11.10;99.90;;;;;;5092847;28;20455;-72
2023/06/02 04:27:07;;;;;;;15.00;10.10;;;11.10;99.90;;;;;;5092172;28;20446;-72
2023/06/02 04:29:34;;;;;;;16.73;9.20;;;11.10;99.90;;;;;;5092411;28;20447;-71
2023/06/02 04:32:02;;;;;;;13.53;8.33;;;11.10;99.90;;;;;;5091677;28;20471;-72
2023/06/02 04:34:29;;;;;;;13.27;8.27;;;11.10;99.90;;;;;;5091595;28;20858;-72
2023/06/02 04:36:55;;;;;;;21.57;8.43;;;11.10;99.90;;;;;;5091629;28;20516;-71
2023/06/02 04:39:23;;;;;;;13.20;7.60;;;11.20;99.90;;;;;;5090940;28;20473;-72
2023/06/02 04:41:50;;;;;;;18.03;7.93;;;11.20;99.90;;;;;;5091019;28;20468;-71
2023/06/02 04:44:17;;;;;;;13.27;7.50;;;11.20;99.90;;;;;;5091110;28;20505;-72
2023/06/02 04:46:43;;;;;;;15.27;8.10;;;11.20;99.90;;;;;;5091025;28;20455;-71
2023/06/02 04:49:11;;;;;;;14.27;8.20;;;11.30;99.90;;;;;;5091254;28;20447;-71
2023/06/02 04:51:38;;;;;;;10.80;7.60;;;11.30;99.90;;;;;;5090874;28;20531;-72
2023/06/02 04:54:05;;;;;;;12.63;8.03;;;11.30;99.90;;;;;;5091292;28;20564;-71
2023/06/02 04:56:32;;;;;;;20.17;7.50;;;11.40;99.90;;;;;;5092119;28;20459;-72
2023/06/02 04:58:58;;;;;;;11.47;7.43;;;11.50;99.90;;;;;;5091799;28;20542;-72
2023/06/02 05:01:26;;;;;;;12.57;7.50;;;11.60;99.90;;;;;;5091570;28;20528;-71
2023/06/02 05:03:54;;;;;;;13.27;7.70;;;11.60;99.90;;;;;;5091681;28;20449;-71
2023/06/02 05:06:22;;;;;;;14.70;8.37;;;11.60;99.90;;;;;;5092125;28;20522;-71
2023/06/02 05:08:48;;;;;;;11.30;8.50;;;11.60;99.90;;;;;;5091640;28;20505;-71
2023/06/02 05:11:15;;;;;;;16.93;8.30;;;11.50;99.90;;;;;;5091496;28;20451;-71
2023/06/02 05:13:42;;;;;;;16.67;7.77;;;11.50;99.90;;;;;;5091857;28;20512;-71
2023/06/02 05:16:09;;;;;;;10.77;7.90;;;11.50;99.90;;;;;;5091222;28;20459;-71
2023/06/02 05:18:36;;;;;;;10.00;7.20;;;11.50;99.90;;;;;;5091676;28;20527;-71
2023/06/02 05:21:03;;;;;;;12.03;7.37;;;11.50;99.90;;;;;;5091426;28;20472;-72
2023/06/02 05:23:31;;;;;;;13.20;8.60;;;11.60;99.90;;;;;;5091583;28;20447;-71
2023/06/02 05:25:58;;;;;;;15.20;8.03;;;11.70;99.90;;;;;;5091283;28;20458;-71
2023/06/02 05:28:24;;;;;;;12.53;7.20;;;11.80;99.90;;;;;;5091617;28;20507;-71
2023/06/02 05:30:51;;;;;;;13.90;7.87;;;11.80;99.90;;;;;;5090896;28;20459;-70
2023/06/02 05:33:17;;;;;;;10.67;7.60;;;11.80;99.90;;;;;;5091314;28;20556;-70
2023/06/02 05:35:44;;;;;;;8.70;6.90;;;11.80;99.90;;;;;;5091459;28;21010;-69
2023/06/02 05:38:11;;;;;;;13.73;7.20;;;11.90;99.90;;;;;;5090913;28;20454;-69
2023/06/02 05:40:39;;;;;;;11.83;7.20;;;11.90;99.90;;;;;;5091088;28;20511;-69
2023/06/02 05:43:05;;;;;;;9.57;6.93;;;11.90;99.90;;;;;;5091128;28;20470;-69
2023/06/02 05:45:32;;;;;;;9.00;6.93;;;12.00;99.90;;;;;;5091335;28;20458;-69
2023/06/02 05:47:59;;;;;;;11.37;7.13;;;12.00;99.90;;;;;;5091294;28;20446;-69
2023/06/02 05:50:25;;;;;;;8.57;7.07;;;12.00;99.90;;;;;;5091385;28;20477;-69
2023/06/02 05:52:52;;;;;;;11.90;6.80;;;12.00;99.90;;;;;;5090206;28;20486;-70
2023/06/02 05:55:18;;;;;;;9.53;7.03;;;12.10;99.90;;;;;;5091143;28;20506;-70
2023/06/02 05:57:46;;;;;;;11.10;7.90;;;12.10;99.90;;;;;;5091124;28;20447;-69
2023/06/02 06:00:15;;;;;;;9.90;7.40;;;12.20;99.90;;;;;;5089509;28;20869;-70
2023/06/02 06:02:41;;;;;;;12.50;7.20;;;12.20;99.90;;;;;;5086731;28;20463;-69
2023/06/02 06:05:09;;;;;;;8.43;6.63;;;12.20;99.90;;;;;;5091016;28;20451;-69
2023/06/02 06:07:35;;;;;;;11.10;6.63;;;12.30;99.90;;;;;;5091206;28;20946;-69
2023/06/02 06:10:02;;;;;;;10.10;6.53;;;12.40;99.90;;;;;;5090768;28;20450;-71
2023/06/02 06:12:29;;;;;;;12.47;7.17;;;12.40;99.90;;;;;;5091126;28;20462;-69
2023/06/02 06:14:57;;;;;;;9.77;7.17;;;12.40;99.90;;;;;;5090128;28;20505;-69
2023/06/02 06:17:23;;;;;;;12.93;7.37;;;12.40;99.90;;;;;;5090962;28;20473;-70
2023/06/02 06:19:50;;;;;;;10.40;7.40;;;12.50;99.90;;;;;;5090386;28;20938;-70
2023/06/02 06:22:16;;;;;;;12.23;7.77;;;12.40;99.90;;;;;;5090682;28;20532;-70
2023/06/02 06:24:43;;;;;;;12.37;8.40;;;12.50;99.90;;;;;;5090372;28;20455;-69
2023/06/02 06:27:10;;;;;;;12.33;7.33;;;12.50;99.90;;;;;;5085558;28;20531;-70
2023/06/02 06:29:37;;;;;;;13.10;7.20;;;12.50;99.90;;;;;;5092516;28;20451;-69
2023/06/02 06:32:07;;;;;;;10.00;6.87;;;12.40;99.90;;;;;;5093725;28;21036;-69
2023/06/02 06:34:33;;;;;;;14.83;7.53;;;12.50;99.90;;;;;;5093790;28;20487;-69
2023/06/02 06:37:00;;;;;;;13.43;7.47;;;12.50;99.90;;;;;;5094573;28;20511;-70
2023/06/02 06:39:27;;;;;;;11.80;6.20;;;12.70;99.90;;;;;;5094555;28;20451;-71
2023/06/02 06:41:53;;;;;;;8.43;6.70;;;12.80;99.90;;;;;;5094016;28;20482;-71
2023/06/02 06:44:20;;;;;;;11.33;6.63;;;12.90;99.90;;;;;;5094131;28;20499;-71
2023/06/02 06:46:47;;;;;;;11.47;6.63;;;13.00;99.90;;;;;;5093201;28;20913;-71
2023/06/02 06:49:15;;;;;;;13.20;6.70;;;13.00;99.90;;;;;;5093645;28;20458;-71
2023/06/02 06:51:41;;;;;;;13.37;6.53;;;13.10;99.90;;;;;;5089043;28;20536;-71
2023/06/02 06:54:08;;;;;;;9.80;7.03;;;13.20;99.90;;;;;;5093924;28;20830;-71
2023/06/02 06:56:35;;;;;;;9.20;6.30;;;13.20;99.90;;;;;;5093942;28;20460;-72
2023/06/02 06:59:02;;;;;;;10.53;6.40;;;13.20;99.90;;;;;;5094115;28;20492;-71
2023/06/02 07:01:28;;;;;;;12.80;6.87;;;13.30;99.90;;;;;;5094171;28;20470;-71
2023/06/02 07:03:55;;;;;;;11.13;6.40;;;13.40;99.90;;;;;;5094109;28;20523;-71
2023/06/02 07:06:23;;;;;;;14.23;7.20;;;13.40;99.90;;;;;;5093698;28;20864;-71
2023/06/02 07:08:49;;;;;;;14.03;7.40;;;13.40;99.90;;;;;;5094091;28;20443;-71
2023/06/02 07:11:16;;;;;;;9.70;6.40;;;13.40;99.90;;;;;;5092882;28;20450;-71
2023/06/02 07:13:43;;;;;;;12.53;7.30;;;13.50;99.90;;;;;;5093765;28;20539;-71
2023/06/02 07:16:09;;;;;;;16.90;6.60;;;13.60;99.90;;;;;;5093832;28;20512;-72
2023/06/02 07:18:36;;;;;;;8.20;6.27;;;13.60;99.90;;;;;;5093805;28;20454;-71
2023/06/02 07:21:03;;;;;;;15.93;6.77;;;13.70;99.90;;;;;;5093474;28;20459;-72
2023/06/02 07:23:31;;;;;;;10.67;6.10;;;13.80;99.90;;;;;;5093559;28;20451;-71
2023/06/02 07:25:57;;;;;;;15.87;7.13;;;14.00;99.90;;;;;;5092983;28;20488;-71
2023/06/02 07:28:24;;;;;;;7.17;5.80;;;14.30;99.90;;;;;;5093848;28;20451;-70
2023/06/02 07:30:52;;;;;;;10.40;5.97;;;14.50;99.90;;;;;;5093178;28;20458;-71
2023/06/02 07:33:18;;;;;;;7.43;5.83;;;14.50;99.90;;;;;;5091487;28;20502;-71
2023/06/02 07:35:45;;;;;;;19.07;6.60;;;14.60;99.90;;;;;;5098094;27;20454;-71
2023/06/02 07:38:12;;;;;;;9.13;5.93;;;14.70;99.90;;;;;;5092958;28;20928;-71
2023/06/02 07:40:40;;;;;;;9.30;6.00;;;14.70;99.90;;;;;;5093078;28;20463;-71
2023/06/02 07:43:07;;;;;;;15.53;6.67;;;14.80;99.90;;;;;;5092978;28;20464;-71
2023/06/02 07:45:33;;;;;;;13.83;6.00;;;15.00;99.90;;;;;;5093410;28;20484;-71
2023/06/02 07:48:00;;;;;;;15.70;6.00;;;15.00;99.90;;;;;;5092709;28;20454;-71
2023/06/02 07:50:27;;;;;;;13.23;6.50;;;15.10;99.90;;;;;;5092909;28;20673;-71
2023/06/02 07:52:54;;;;;;;15.20;5.90;;;15.30;99.90;;;;;;5092396;28;20543;-71
2023/06/02 07:55:21;;;;;;;11.83;6.53;;;15.50;99.90;;;;;;5092478;28;20624;-71
2023/06/02 07:57:49;;;;;;;10.53;6.13;;;15.60;99.90;;;;;;5092897;28;20451;-71
2023/06/02 08:00:18;;;;;;;7.03;5.47;;;15.80;99.90;;;;;;5088559;28;21047;-70
2023/06/02 08:02:46;;;;;;;10.53;6.60;;;15.90;99.90;;;;;;5091884;28;20478;-70
2023/06/02 08:05:13;;;;;;;12.80;6.10;;;15.60;99.90;;;;;;5092327;28;20439;-70
2023/06/02 08:07:40;;;;;;;9.07;5.93;;;15.70;99.90;;;;;;5092198;28;20451;-70
2023/06/02 08:10:08;;;;;;;10.07;5.87;;;16.00;99.90;;;;;;5090728;28;20512;-71
2023/06/02 08:12:35;;;;;;;14.47;5.87;;;16.20;99.90;;;;;;5091676;28;20471;-71
2023/06/02 08:15:04;;;;;;;14.70;5.07;;;16.50;99.90;;;;;;5092053;28;20482;-71
2023/06/02 08:17:31;;;;;;;10.80;5.53;;;16.60;99.90;;;;;;5091521;28;21002;-71
2023/06/02 08:19:58;;;;;;;12.10;6.00;;;16.80;99.90;;;;;;5091487;28;20447;-71
2023/06/02 08:22:25;;;;;;;10.83;5.20;;;16.60;99.90;;;;;;5091916;28;20496;-71
2023/06/02 08:24:52;;;;;;;10.30;5.23;;;16.50;99.90;;;;;;5092001;28;20447;-70
2023/06/02 08:27:20;;;;;;;15.50;6.10;;;16.70;99.90;;;;;;5091247;28;20448;-71
2023/06/02 08:29:46;;;;;;;11.00;5.27;;;17.00;99.90;;;;;;5091945;28;20457;-71
2023/06/02 08:32:14;;;;;;;8.37;5.63;;;17.20;99.90;;;;;;5090665;28;20478;-71
2023/06/02 08:34:41;;;;;;;13.53;5.60;;;17.20;99.90;;;;;;5090412;28;20479;-70
2023/06/02 08:37:09;;;;;;;10.27;5.67;;;17.40;99.90;;;;;;5091282;28;20950;-70
2023/06/02 08:39:36;;;;;;;10.93;6.10;;;17.70;99.90;;;;;;5091450;28;20454;-70
2023/06/02 08:42:03;;;;;;;8.90;5.50;;;18.00;99.90;;;;;;5091448;28;20437;-70
2023/06/02 08:44:30;;;;;;;11.70;5.73;;;18.10;99.90;;;;;;5091279;28;20946;-70
2023/06/02 08:46:57;;;;;;;5.57;5.03;;;18.00;99.90;;;;;;5089468;28;20443;-70
2023/06/02 08:49:28;;;;;;;10.87;5.07;;;18.00;99.90;;;;;;5091438;28;20449;-70
2023/06/02 08:52:03;;;;;;;9.70;6.00;;;18.00;99.90;;;;;;5090280;28;20475;-70
2023/06/02 08:54:30;;;;;;;9.70;5.33;;;18.20;99.90;;;;;;5091704;28;20482;-70
2023/06/02 08:56:59;;;;;;;12.33;5.63;;;18.30;99.90;;;;;;5091130;28;20458;-71
2023/06/02 08:59:26;;;;;;;15.30;6.03;;;18.30;99.90;;;;;;5091405;28;20466;-70
2023/06/02 09:01:53;;;;;;;8.03;5.73;;;18.40;99.90;;;;;;5090144;28;20449;-70
2023/06/02 09:04:19;;;;;;;11.03;5.33;;;18.70;99.90;;;;;;5090853;28;20421;-69
2023/06/02 09:06:49;;;;;;;9.87;5.30;;;18.80;99.90;;;;;;5091428;28;20418;-70
2023/06/02 09:09:16;;;;;;;13.70;5.43;;;19.20;99.90;;;;;;5091002;28;20465;-70
2023/06/02 09:11:58;;;;;;;9.27;5.20;;;19.50;99.90;;;;;;5090944;28;20437;-71
2023/06/02 09:14:24;;;;;;;13.23;5.90;;;19.60;99.90;;;;;;5082692;28;20467;-70
2023/06/02 09:16:51;;;;;;;10.90;5.50;;;19.40;99.90;;;;;;5083438;28;20785;-71
2023/06/02 09:19:19;;;;;;;13.93;6.30;;;19.30;99.90;;;;;;5090835;28;20478;-70
2023/06/02 09:21:47;;;;;;;14.87;5.90;;;19.30;99.90;;;;;;5090800;28;20532;-70
2023/06/02 09:24:30;;;;;;;14.53;6.53;;;19.50;99.90;;;;;;5090314;28;20813;-69
2023/06/02 09:26:57;;;;;;;16.87;5.83;;;19.50;99.90;;;;;;5087271;28;20429;-70
2023/06/02 09:29:23;;;;;;;10.80;5.90;;;19.70;99.90;;;;;;5090535;28;20474;-70
2023/06/02 09:31:52;;;;;;;10.67;6.20;;;19.70;99.90;;;;;;5090751;28;20441;-70
2023/06/02 09:34:20;;;;;;;9.83;5.73;;;19.80;99.90;;;;;;5090505;28;20932;-69
2023/06/02 09:36:50;;;;;;;12.50;6.70;;;20.00;99.90;;;;;;5090652;28;20908;-70
2023/06/02 09:39:32;;;;;;;10.50;6.53;;;20.00;99.90;;;;;;5090452;28;20421;-70
2023/06/02 09:41:59;;;;;;;17.67;7.07;;;19.60;99.90;;;;;;5090637;28;20482;-69
2023/06/02 09:44:26;;;;;;;10.50;6.60;;;19.30;99.90;;;;;;5082636;28;20421;-70
2023/06/02 09:46:54;;;;;;;12.33;6.60;;;19.30;99.90;;;;;;5090734;28;20421;-70
2023/06/02 09:49:21;;;;;;;9.50;6.03;;;19.30;99.90;;;;;;5090330;28;20494;-70
2023/06/02 09:51:50;;;;;;;13.20;6.90;;;19.50;99.90;;;;;;5090382;28;20449;-71
2023/06/02 09:54:17;;;;;;;12.20;6.30;;;19.50;99.90;;;;;;5090088;28;20450;-70
2023/06/02 09:56:43;;;;;;;13.07;6.50;;;19.60;99.90;;;;;;5090256;28;20491;-70
2023/06/02 09:59:10;;;;;;;12.47;6.53;;;19.60;99.90;;;;;;5090088;28;20422;-70
2023/06/02 10:01:37;;;;;;;12.90;6.87;;;19.50;99.90;;;;;;5089453;28;20478;-71
2023/06/02 10:04:06;;;;;;;17.10;7.07;;;19.70;99.90;;;;;;5092284;28;20421;-70
2023/06/02 10:06:54;;;;;;;16.10;5.73;;;20.00;99.90;;;;;;5094588;28;20571;-69
2023/06/02 10:09:38;;;;;;;13.27;6.03;;;20.40;99.90;;;;;;5093813;28;20543;-69
2023/06/02 10:12:19;;;;;;;12.77;6.30;;;20.70;99.90;;;;;;5091400;28;20531;-69
2023/06/02 10:14:59;;;;;;;14.37;6.87;;;20.30;99.90;;;;;;5094233;28;20548;-69
2023/06/02 10:17:36;;;;;;;11.70;6.30;;;20.00;99.90;;;;;;5094373;28;20781;-69
2023/06/02 10:20:25;;;;;;;11.30;5.60;;;20.20;99.90;;;;;;5094220;28;20543;-69
2023/06/02 10:23:15;;;;;;;10.60;6.10;;;20.50;99.90;;;;;;5094267;28;20463;-70
2023/06/02 10:25:59;;;;;;;15.03;6.67;;;20.60;99.90;;;;;;5077450;28;20417;-69
2023/06/02 10:28:28;;;;;;;12.90;6.40;;;20.40;99.90;;;;;;5086669;28;20554;-71
2023/06/02 10:31:06;;;;;;;11.13;6.60;;;20.30;99.90;;;;;;5093682;28;20413;-71
2023/06/02 10:33:44;;;;;;;17.30;6.20;;;20.30;99.90;;;;;;5092506;28;20424;-71
2023/06/02 10:36:12;;;;;;;14.07;6.20;;;20.80;99.90;;;;;;5094172;28;20488;-71
2023/06/02 10:38:40;;;;;;;16.30;6.80;;;20.90;99.90;;;;;;5094415;28;20436;-71
2023/06/02 10:41:07;;;;;;;15.27;5.93;;;21.10;99.90;;;;;;5093083;28;20503;-71
2023/06/02 10:43:34;;;;;;;15.50;6.53;;;21.10;99.90;;;;;;5093721;28;20478;-71
2023/06/02 10:46:18;;;;;;;10.63;5.80;;;20.90;99.90;;;;;;5092548;28;20447;-71
2023/06/02 10:48:45;;;;;;;17.10;5.63;;;21.30;99.90;;;;;;5088018;28;20413;-71
2023/06/02 10:51:13;;;;;;;13.93;6.03;;;21.40;99.90;;;;;;5093241;28;21159;-71
2023/06/02 10:54:15;;;;;;;11.83;5.50;;;21.60;99.90;;;;;;5093657;28;20443;-72
2023/06/02 10:56:44;;;;;;;12.07;6.13;;;21.40;99.90;;;;;;5087453;28;20535;-71
2023/06/02 10:59:30;;;;;;;16.57;6.97;;;21.30;99.90;;;;;;5093228;28;20447;-71
2023/06/02 11:01:56;;;;;;;24.10;8.17;;;21.40;99.90;;;;;;5088412;28;20528;-71
2023/06/02 11:04:27;;;;;;;17.70;7.23;;;21.20;99.90;;;;;;5093059;28;20478;-71
2023/06/02 11:07:18;;;;;;;16.43;6.47;;;21.50;99.90;;;;;;5093081;28;20937;-71
2023/06/02 11:09:46;;;;;;;10.67;6.60;;;21.60;99.90;;;;;;5091430;28;20804;-71
2023/06/02 11:12:13;;;;;;;14.47;6.23;;;21.90;99.90;;;;;;5093158;28;20444;-71
2023/06/02 11:15:17;;;;;;;12.10;6.23;;;22.00;99.90;;;;;;5087957;28;20913;-70
2023/06/02 11:17:47;;;;;;;15.23;6.63;;;22.10;99.90;;;;;;5087237;28;20421;-71
2023/06/02 11:20:15;;;;;;;16.43;7.10;;;22.10;99.90;;;;;;5092641;28;20946;-70
2023/06/02 11:22:42;;;;;;;15.07;7.57;;;22.20;99.90;;;;;;5093465;28;20462;-71
2023/06/02 11:25:11;;;;;;;23.70;8.00;;;22.20;99.90;;;;;;5092252;28;20442;-71
2023/06/02 11:27:43;;;;;;;13.10;6.50;;;22.00;99.90;;;;;;5093279;28;20446;-71
2023/06/02 11:30:15;;;;;;;15.80;5.93;;;22.10;99.90;;;;;;5092711;28;20784;-70
2023/06/02 11:32:43;;;;;;;15.00;6.53;;;22.30;99.90;;;;;;5092773;28;20904;-70
2023/06/02 11:35:11;;;;;;;15.17;5.70;;;22.40;99.90;;;;;;5092038;28;20482;-70
2023/06/02 11:37:41;;;;;;;13.07;6.17;;;22.60;99.90;;;;;;5092703;28;20508;-71
2023/06/02 11:40:11;;;;;;;15.73;6.00;;;22.60;99.90;;;;;;5092327;28;20851;-70
2023/06/02 11:42:40;;;;;;;11.97;5.67;;;22.70;99.90;;;;;;5093057;28;20523;-72
2023/06/02 11:45:18;;;;;;;14.37;5.70;;;22.60;99.90;;;;;;5092566;28;20459;-72
2023/06/02 11:47:46;;;;;;;15.03;5.97;;;23.00;99.90;;;;;;5092859;28;20417;-72
2023/06/02 11:50:15;;;;;;;14.80;5.53;;;22.90;99.90;;;;;;5091386;28;20477;-72
2023/06/02 11:52:42;;;;;;;13.93;5.00;;;22.80;99.90;;;;;;5092650;28;20467;-71
2023/06/02 11:55:11;;;;;;;11.00;5.37;;;22.80;99.90;;;;;;5092331;28;20478;-71
2023/06/02 11:57:38;;;;;;;12.43;5.83;;;22.80;99.90;;;;;;5092570;28;20981;-72
2023/06/02 12:00:15;;;;;;;13.43;5.60;;;22.70;99.90;;;;;;5091443;28;20845;-71
2023/06/02 12:02:44;;;;;;;13.50;5.70;;;22.90;99.90;;;;;;5085721;28;20470;-71
2023/06/02 12:05:29;;;;;;;9.53;4.67;;;22.80;99.90;;;;;;5091587;28;20931;-71
2023/06/02 12:07:56;;;;;;;8.63;4.30;;;22.60;99.90;;;;;;5092254;28;20533;-71
2023/06/02 12:10:31;;;;;;;14.23;4.93;;;22.70;99.90;;;;;;5091574;28;20991;-71
2023/06/02 12:12:58;;;;;;;13.13;5.00;;;22.80;99.90;;;;;;5092296;28;20469;-71
2023/06/02 12:15:32;;;;;;;13.10;4.80;;;22.60;99.90;;;;;;5092064;28;20482;-71
2023/06/02 12:18:00;;;;;;;14.40;4.80;;;22.60;99.90;;;;;;5092276;28;20450;-71
2023/06/02 12:20:35;;;;;;;15.40;4.97;;;22.60;99.90;;;;;;5091353;28;20498;-71
2023/06/02 12:23:02;;;;;;;10.23;3.90;;;23.00;99.90;;;;;;5091701;28;20869;-71
2023/06/02 12:25:30;;;;;;;18.37;4.80;;;23.30;99.90;;;;;;5091055;28;20442;-71
2023/06/02 12:28:11;;;;;;;16.93;4.73;;;23.30;99.90;;;;;;5091513;28;20477;-71
2023/06/02 12:30:38;;;;;;;17.53;4.87;;;23.40;99.90;;;;;;5086605;28;20475;-70
2023/06/02 12:33:09;;;;;;;15.43;5.30;;;23.10;99.90;;;;;;5091390;28;20474;-71
2023/06/02 12:35:36;;;;;;;12.50;4.20;;;22.80;99.90;;;;;;5083495;28;20478;-71
2023/06/02 12:38:04;;;;;;;15.77;5.00;;;22.90;99.90;;;;;;5090613;28;20458;-71
2023/06/02 12:40:32;;;;;;;12.97;4.50;;;23.20;99.90;;;;;;5090821;28;20486;-70
2023/06/02 12:42:59;;;;;;;11.30;4.30;;;23.40;99.90;;;;;;5091780;28;20516;-71
2023/06/02 12:45:26;;;;;;;14.30;4.77;;;23.90;99.90;;;;;;5088960;28;20970;-72